No particular awareness of the weather is required.    There are no Weather-warnings


Meteo18 Weather Cam more information Meteo18 Weather Cam


Thunder radar more information blitzortung!


Rain radar more information rain snow radar


Visit our other weather sites:

Template documentation
and downloads

And another site



Weather Underground History page Text

Daily Summary for November 29, 2017 Units:  English    Metric   Both
« Previous Day
Next Day »
Daily Weekly Monthly Yearly Custom
  High: Low: Average:
Temperature: TemperatureC °F -0.2 °F 2 °F
Dew Point: DewpointC °F -0.8 °F 1.3 °F
Humidity: Humidity % 91 % 94 %
Wind Speed: WindSpeedKMH mph 0.0 mph 2.9 mph
Wind Gust: WindSpeedGustKMH mph - -
Wind:- - West
Pressure: PressurehPa in 1008.4 in -
Precipitation: 0.5 in    
Historical Graphs
 
 
Tabular Data for November 29, 2017
Time Temperature Dew Point Pressure Wind Wind Speed Wind Gust Humidity Rainfall Rate (Hourly)
TemperatureC °F DewpointC °F PressurehPa in Calm     Humidity % HourlyPrecipMM in
00:02 4.2 °F 3.3 °F 1009.0 in Calm   4.8 mph 94 % 0.0 in
00:27 3.7 °F 2.8 °F 1009.0 in Calm   1.6 mph 94 % 0.0 in
00:32 3.6 °F 2.7 °F 1009.0 in Calm   1.6 mph 94 % 0.0 in
00:37 3.5 °F 2.6 °F 1009.0 in Calm   1.6 mph 94 % 0.0 in
00:42 3.4 °F 2.7 °F 1009.0 in Calm     95 % 0.0 in
00:47 3.3 °F 2.6 °F 1009.0 in Calm   1.6 mph 95 % 0.0 in
00:52 3.2 °F 2.5 °F 1009.0 in Calm   1.6 mph 95 % 0.0 in
01:12 3.3 °F 2.6 °F 1008.7 in Calm   4.8 mph 95 % 0.3 in
01:17 3.3 °F 2.6 °F 1009.0 in West 4.8 mph 9.7 mph 95 % 0.3 in
01:42 3.1 °F 2.4 °F 1008.7 in Calm   4.8 mph 95 % 0.3 in
01:52 3.1 °F 2.4 °F 1008.7 in WNW 1.6 mph 1.6 mph 95 % 0.3 in
02:02 3.0 °F 2.3 °F 1008.7 in Calm   1.6 mph 95 % 0.0 in
02:12 3.0 °F 2.3 °F 1008.7 in Calm   1.6 mph 95 % 0.0 in
02:22 2.9 °F 2.2 °F 1008.7 in Calm     95 % 0.0 in
02:27 2.9 °F 2.2 °F 1008.7 in Calm   1.6 mph 95 % 0.0 in
02:32 2.9 °F 2.2 °F 1008.7 in Calm   1.6 mph 95 % 0.0 in
02:37 2.9 °F 2.2 °F 1008.7 in Calm   1.6 mph 95 % 0.0 in
02:42 3.0 °F 2.3 °F 1008.7 in Calm   1.6 mph 95 % 0.0 in
02:52 2.9 °F 2.2 °F 1008.7 in Calm   1.6 mph 95 % 0.0 in
03:02 3.1 °F 2.5 °F 1008.7 in NW 1.6 mph 3.2 mph 96 % 0.0 in
03:07 3.1 °F 2.4 °F 1008.7 in Calm   3.2 mph 95 % 0.0 in
03:12 3.0 °F 2.3 °F 1008.7 in WNW 1.6 mph 3.2 mph 95 % 0.0 in
03:17 3.0 °F 2.3 °F 1008.7 in WNW 1.6 mph 3.2 mph 95 % 0.0 in
03:22 2.9 °F 2.2 °F 1008.7 in NW 1.6 mph 3.2 mph 95 % 0.0 in
03:27 2.9 °F 2.2 °F 1008.7 in Calm   3.2 mph 95 % 0.0 in
03:32 2.9 °F 2.2 °F 1008.7 in NW 3.2 mph 3.2 mph 95 % 0.0 in
03:42 3.1 °F 2.4 °F 1008.7 in Calm   6.4 mph 95 % 0.0 in
03:47 3.1 °F 2.4 °F 1008.7 in Calm   6.4 mph 95 % 0.0 in
04:02 3.1 °F 2.4 °F 1008.7 in NNW 3.2 mph 4.8 mph 95 % 0.0 in
04:22 2.8 °F 2.1 °F 1008.4 in North 3.2 mph 6.4 mph 95 % 0.0 in
04:32 2.7 °F 2.0 °F 1008.4 in NNW 3.2 mph 4.8 mph 95 % 0.0 in
04:37 2.6 °F 1.9 °F 1008.4 in North 3.2 mph 4.8 mph 95 % 0.0 in
04:42 2.5 °F 1.8 °F 1008.4 in West 4.8 mph 4.8 mph 95 % 0.0 in
04:47 2.4 °F 1.7 °F 1008.4 in NW 1.6 mph 6.4 mph 95 % 0.0 in
04:52 2.3 °F 1.6 °F 1008.4 in NW 1.6 mph 6.4 mph 95 % 0.0 in
05:02 1.9 °F 1.2 °F 1008.4 in NNW 1.6 mph 6.4 mph 95 % 0.0 in
05:07 1.9 °F 1.2 °F 1008.4 in NW 3.2 mph 4.8 mph 95 % 0.0 in
05:12 1.8 °F 1.1 °F 1008.4 in NW 3.2 mph 4.8 mph 95 % 0.0 in
05:17 1.8 °F 1.1 °F 1008.4 in WNW 3.2 mph 4.8 mph 95 % 0.0 in
05:22 1.8 °F 1.1 °F 1008.4 in Calm   4.8 mph 95 % 0.0 in
05:32 1.3 °F 0.6 °F 1008.4 in Calm   4.8 mph 95 % 0.0 in
05:37 1.1 °F 0.4 °F 1008.7 in NW 1.6 mph 3.2 mph 95 % 0.0 in
05:42 1.1 °F 0.5 °F 1008.7 in NNW 1.6 mph 3.2 mph 96 % 0.0 in
05:52 1.2 °F 0.6 °F 1008.7 in North 1.6 mph 4.8 mph 96 % 0.0 in
05:57 1.2 °F 0.6 °F 1008.4 in NW 1.6 mph 4.8 mph 96 % 0.0 in
06:02 0.9 °F 0.2 °F 1008.7 in WNW 1.6 mph 4.8 mph 95 % 0.0 in
06:12 0.6 °F -0.1 °F 1008.7 in Calm   4.8 mph 95 % 0.0 in
06:32 0.6 °F 0.0 °F 1008.7 in North 1.6 mph 4.8 mph 96 % 0.0 in
06:42 0.6 °F 0.0 °F 1008.7 in Calm   3.2 mph 96 % 0.0 in
06:57 0.7 °F 0.1 °F 1008.4 in Calm   1.6 mph 96 % 0.0 in
07:02 0.7 °F 0.1 °F 1008.7 in Calm   1.6 mph 96 % 0.0 in
07:12 0.6 °F 0.0 °F 1008.7 in Calm   1.6 mph 96 % 0.0 in
07:32 0.6 °F 0.0 °F 1008.7 in Calm     96 % 0.0 in
07:37 0.6 °F 0.0 °F 1008.7 in Calm     96 % 0.0 in
07:42 0.6 °F 0.2 °F 1009.0 in Calm     97 % 0.0 in
07:47 0.6 °F 0.0 °F 1009.0 in Calm   1.6 mph 96 % 0.0 in
07:52 0.6 °F 0.0 °F 1009.0 in Calm   1.6 mph 96 % 0.0 in
08:02 0.6 °F 0.0 °F 1009.0 in Calm   1.6 mph 96 % 0.0 in
08:07 0.5 °F -0.1 °F 1009.0 in Calm   1.6 mph 96 % 0.0 in
08:12 0.5 °F -0.1 °F 1009.0 in Calm   1.6 mph 96 % 0.0 in
08:22 0.5 °F -0.1 °F 1009.0 in Calm   1.6 mph 96 % 0.0 in
08:32 0.6 °F 0.2 °F 1009.4 in Calm     97 % 0.0 in
08:37 0.6 °F 0.2 °F 1009.4 in SE 1.6 mph   97 % 0.0 in
08:42 0.6 °F 0.2 °F 1009.4 in Calm     97 % 0.0 in
08:52 0.6 °F 0.2 °F 1009.4 in Calm   1.6 mph 97 % 0.0 in
09:02 0.6 °F 0.2 °F 1009.4 in Calm   1.6 mph 97 % 0.0 in
09:07 0.7 °F 0.3 °F 1009.7 in SSW 1.6 mph   97 % 0.0 in
09:12 0.6 °F 0.2 °F 1009.7 in Calm     97 % 0.0 in
09:17 0.6 °F 0.2 °F 1009.7 in Calm   1.6 mph 97 % 0.0 in
09:52 0.3 °F -0.3 °F 1009.7 in Calm   4.8 mph 96 % 0.0 in
10:02 0.3 °F -0.1 °F 1009.7 in SW 1.6 mph 4.8 mph 97 % 0.0 in
10:12 0.2 °F -0.4 °F 1010.0 in Calm   3.2 mph 96 % 0.0 in
10:17 0.2 °F -0.4 °F 1010.0 in WSW 1.6 mph 6.4 mph 96 % 0.0 in
10:32 0.1 °F -0.5 °F 1010.0 in SSW 1.6 mph 3.2 mph 96 % 0.0 in
10:37 -0.1 °F -0.7 °F 1010.0 in SSW 3.2 mph 4.8 mph 96 % 0.0 in
10:57 -0.2 °F -0.8 °F 1010.0 in SW 6.4 mph 8.0 mph 96 % 0.0 in
11:02 -0.2 °F -0.6 °F 1010.0 in WSW 1.6 mph 8.0 mph 97 % 0.0 in
11:12 -0.1 °F -0.5 °F 1010.0 in WSW 1.6 mph 8.0 mph 97 % 0.0 in
11:22 0.2 °F -0.2 °F 1010.0 in Calm   9.7 mph 97 % 0.0 in
11:27 0.3 °F -0.1 °F 1010.0 in WSW 1.6 mph 6.4 mph 97 % 0.0 in
11:42 0.7 °F 0.3 °F 1010.0 in WSW 1.6 mph 6.4 mph 97 % 0.0 in
11:52 0.8 °F 0.4 °F 1010.0 in WSW 6.4 mph 6.4 mph 97 % 0.0 in
11:57 0.7 °F 0.3 °F 1010.0 in SSW 4.8 mph 8.0 mph 97 % 0.0 in
12:02 0.8 °F 0.4 °F 1010.0 in SW 1.6 mph 8.0 mph 97 % 0.0 in
12:27 1.2 °F 0.8 °F 1009.7 in SW 6.4 mph 6.4 mph 97 % 0.0 in
12:32 1.2 °F 0.8 °F 1009.7 in SW 6.4 mph 6.4 mph 97 % 0.0 in
12:37 1.2 °F 0.8 °F 1009.7 in SSW 1.6 mph 9.7 mph 97 % 0.0 in
12:42 1.3 °F 0.9 °F 1009.7 in WSW 4.8 mph 9.7 mph 97 % 0.0 in
12:57 1.6 °F 1.2 °F 1009.7 in SW 9.7 mph 9.7 mph 97 % 0.0 in
13:02 1.6 °F 1.2 °F 1009.7 in SW 3.2 mph 9.7 mph 97 % 0.0 in
13:12 1.8 °F 1.4 °F 1009.7 in WSW 1.6 mph 9.7 mph 97 % 0.0 in
13:17 1.7 °F 1.3 °F 1009.4 in West 4.8 mph 9.7 mph 97 % 0.0 in
13:22 1.8 °F 1.4 °F 1009.4 in West 4.8 mph 9.7 mph 97 % 0.0 in
13:32 2.0 °F 1.6 °F 1009.4 in WSW 1.6 mph 11.3 mph 97 % 0.0 in
13:47 2.2 °F 1.8 °F 1009.4 in WSW 4.8 mph 11.3 mph 97 % 0.0 in
13:52 2.2 °F 1.8 °F 1009.4 in WSW 3.2 mph 11.3 mph 97 % 0.0 in
14:12 2.5 °F 2.1 °F 1009.4 in SW 4.8 mph 11.3 mph 97 % 0.0 in
14:17 2.6 °F 2.2 °F 1009.4 in West 4.8 mph 12.9 mph 97 % 0.0 in
14:32 2.7 °F 2.0 °F 1009.4 in West 11.3 mph 12.9 mph 95 % 0.0 in
14:47 2.9 °F 1.9 °F 1009.4 in WSW 9.7 mph 12.9 mph 93 % 0.0 in
14:52 3.2 °F 2.2 °F 1009.4 in West 3.2 mph 12.9 mph 93 % 0.0 in
14:57 3.3 °F 2.1 °F 1009.4 in SW 6.4 mph 11.3 mph 92 % 0.0 in
15:02 3.3 °F 2.1 °F 1009.4 in West 8.0 mph 11.3 mph 92 % 0.0 in
15:12 3.3 °F 2.0 °F 1009.4 in West 1.6 mph 11.3 mph 91 % 0.0 in
15:17 3.3 °F 2.1 °F 1009.4 in WSW 3.2 mph 11.3 mph 92 % 0.0 in
15:22 3.3 °F 2.1 °F 1009.4 in WNW 4.8 mph 11.3 mph 92 % 0.0 in
15:32 3.0 °F 1.8 °F 1009.4 in West 8.0 mph 9.7 mph 92 % 0.0 in
15:37 2.9 °F 1.7 °F 1009.4 in SW 4.8 mph 11.3 mph 92 % 0.0 in
15:42 2.9 °F 1.7 °F 1009.4 in West 4.8 mph 11.3 mph 92 % 0.0 in
15:52 2.9 °F 1.9 °F 1009.4 in WSW 1.6 mph 11.3 mph 93 % 0.0 in
16:02 2.8 °F 1.8 °F 1009.4 in West 3.2 mph 9.7 mph 93 % 0.0 in
16:07 2.8 °F 1.8 °F 1009.4 in West 6.4 mph 9.7 mph 93 % 0.0 in
16:12 2.8 °F 1.8 °F 1009.4 in WSW 3.2 mph 9.7 mph 93 % 0.0 in
16:17 2.7 °F 1.7 °F 1009.4 in SW 3.2 mph 9.7 mph 93 % 0.0 in
16:22 2.7 °F 1.7 °F 1009.4 in West 4.8 mph 9.7 mph 93 % 0.0 in
16:27 2.6 °F 1.6 °F 1009.4 in West 4.8 mph 11.3 mph 93 % 0.0 in
16:32 2.6 °F 1.6 °F 1009.4 in WSW 4.8 mph 11.3 mph 93 % 0.0 in
16:42 2.6 °F 1.6 °F 1009.4 in WSW 9.7 mph 12.9 mph 93 % 0.0 in
16:52 2.6 °F 1.6 °F 1009.7 in West 4.8 mph 14.5 mph 93 % 0.0 in
17:12 2.4 °F 1.4 °F 1009.7 in West 4.8 mph 16.1 mph 93 % 0.0 in
17:17 2.3 °F 1.3 °F 1009.7 in West 4.8 mph 12.9 mph 93 % 0.0 in
17:27 2.2 °F 1.2 °F 1009.7 in West 4.8 mph 14.5 mph 93 % 0.0 in
17:32 2.2 °F 1.2 °F 1009.7 in West 8.0 mph 14.5 mph 93 % 0.0 in
17:37 2.1 °F 1.1 °F 1010.0 in WSW 9.7 mph 12.9 mph 93 % 0.0 in
18:02 2.0 °F 1.1 °F 1010.0 in West 6.4 mph 11.3 mph 94 % 0.0 in
18:12 2.1 °F 1.2 °F 1010.0 in WNW 9.7 mph 9.7 mph 94 % 0.0 in
18:17 2.1 °F 1.2 °F 1010.0 in West 8.0 mph 8.0 mph 94 % 0.0 in
18:22 2.1 °F 1.2 °F 1010.0 in WNW 8.0 mph 12.9 mph 94 % 0.0 in
18:32 2.0 °F 1.1 °F 1010.0 in West 6.4 mph 14.5 mph 94 % 0.0 in
18:37 2.0 °F 1.1 °F 1010.4 in WNW 4.8 mph 14.5 mph 94 % 0.0 in
18:42 2.0 °F 1.1 °F 1010.4 in WNW 4.8 mph 16.1 mph 94 % 0.0 in
18:52 2.0 °F 1.1 °F 1010.4 in West 6.4 mph 12.9 mph 94 % 0.0 in
18:57 2.0 °F 1.1 °F 1010.4 in WNW 8.0 mph 12.9 mph 94 % 0.0 in
19:12 2.1 °F 1.2 °F 1010.4 in West 3.2 mph 14.5 mph 94 % 0.0 in
19:17 2.0 °F 1.1 °F 1010.4 in WNW 3.2 mph 11.3 mph 94 % 0.0 in
19:32 2.0 °F 1.1 °F 1010.7 in WSW 6.4 mph 9.7 mph 94 % 0.0 in
19:42 2.1 °F 1.2 °F 1010.7 in WSW 6.4 mph 9.7 mph 94 % 0.0 in
19:47 2.1 °F 1.2 °F 1010.7 in West 11.3 mph 14.5 mph 94 % 0.0 in
20:02 2.1 °F 1.2 °F 1010.7 in WSW 3.2 mph 11.3 mph 94 % 0.0 in
20:12 2.1 °F 1.2 °F 1010.7 in WSW 4.8 mph 11.3 mph 94 % 0.0 in
20:17 2.1 °F 1.2 °F 1010.7 in WSW 3.2 mph 6.4 mph 94 % 0.0 in
20:22 2.1 °F 1.2 °F 1010.7 in West 4.8 mph 6.4 mph 94 % 0.0 in
20:27 2.0 °F 1.1 °F 1010.7 in WNW 3.2 mph 6.4 mph 94 % 0.0 in
20:32 2.0 °F 1.1 °F 1011.1 in WNW 1.6 mph 6.4 mph 94 % 0.0 in
20:42 2.1 °F 1.2 °F 1011.1 in WNW 4.8 mph 6.4 mph 94 % 0.0 in
20:47 2.1 °F 1.2 °F 1011.1 in West 1.6 mph 14.5 mph 94 % 0.0 in
20:52 2.1 °F 1.2 °F 1011.1 in WNW 4.8 mph 14.5 mph 94 % 0.0 in
20:57 2.1 °F 1.2 °F 1011.1 in WNW 9.7 mph 14.5 mph 94 % 0.0 in
21:02 2.1 °F 1.2 °F 1011.1 in West 8.0 mph 14.5 mph 94 % 0.0 in
21:12 2.2 °F 1.3 °F 1011.1 in West 3.2 mph 9.7 mph 94 % 0.0 in
21:17 2.2 °F 1.3 °F 1011.1 in West 6.4 mph 8.0 mph 94 % 0.3 in
21:27 2.3 °F 1.4 °F 1011.1 in WNW 6.4 mph 9.7 mph 94 % 0.3 in
21:32 2.4 °F 1.5 °F 1011.1 in West 1.6 mph 9.7 mph 94 % 0.3 in
21:42 2.5 °F 1.6 °F 1011.4 in Calm   9.7 mph 94 % 0.3 in
21:47 2.5 °F 1.6 °F 1011.4 in WNW 3.2 mph 8.0 mph 94 % 0.3 in
21:57 2.6 °F 1.7 °F 1011.4 in West 4.8 mph 12.9 mph 94 % 0.3 in
22:02 2.6 °F 1.7 °F 1011.1 in NW 4.8 mph 12.9 mph 94 % 0.3 in
22:07 2.6 °F 1.6 °F 1011.1 in WNW 8.0 mph 12.9 mph 93 % 0.3 in
22:12 2.7 °F 1.7 °F 1011.4 in West 3.2 mph 12.9 mph 93 % 0.3 in
22:17 2.7 °F 1.7 °F 1011.4 in West 1.6 mph 9.7 mph 93 % 0.0 in
22:22 2.7 °F 1.7 °F 1011.1 in West 1.6 mph 9.7 mph 93 % 0.0 in
22:32 2.6 °F 1.6 °F 1011.4 in Calm   8.0 mph 93 % 0.0 in
22:37 2.6 °F 1.6 °F 1011.4 in WNW 4.8 mph 4.8 mph 93 % 0.0 in
22:42 2.6 °F 1.6 °F 1011.4 in WNW 1.6 mph 4.8 mph 93 % 0.0 in
22:47 2.6 °F 1.6 °F 1011.4 in Calm   4.8 mph 93 % 0.0 in
22:52 2.6 °F 1.6 °F 1011.4 in Calm   4.8 mph 93 % 0.0 in
23:02 2.6 °F 1.6 °F 1011.4 in Calm   3.2 mph 93 % 0.0 in
23:12 2.6 °F 1.6 °F 1011.4 in West 1.6 mph 1.6 mph 93 % 0.0 in
23:17 2.6 °F 1.6 °F 1011.4 in West 1.6 mph 1.6 mph 93 % 0.0 in
23:22 2.6 °F 1.6 °F 1011.4 in Calm   1.6 mph 93 % 0.0 in
23:32 2.7 °F 1.7 °F 1011.1 in Calm   3.2 mph 93 % 0.0 in
23:42 2.7 °F 1.7 °F 1011.4 in West 1.6 mph 4.8 mph 93 % 0.0 in
23:47 2.8 °F 1.8 °F 1011.4 in WNW 3.2 mph 4.8 mph 93 % 0.0 in
23:57 2.8 °F 1.8 °F 1011.4 in West 3.2 mph 4.8 mph 93 % 0.0 in
Meteo18
Compliments of Weather Underground - 4 mb

Script developed by  Jim McMurry - jmcmurry@mwt.net Adapted for the template by  Wim van der Kuil - Leuven-Template.eu

You find our weather info also at:

European Weather Network

Weather Underground

Equipment we use:

Weather-station
Davis Vue

Weather-program
Meteobridge

Weather-server
Raspberry PI 2 B+

Provider
1 and 1

Davis Vue

Meteobridge

Raspberry PI 2 B+

1 and 1